Time;durP1;ratioP1;P1;durP2;ratioP2;P2;SDS_P1;SDS_P2;PMS_P1;PMS_P2;Temp;Humidity;BMP_temperature;BMP_pressure;BME280_temperature;BME280_humidity;BME280_pressure;Samples;Min_cycle;Max_cycle;Signal;HPM_P1;HPM_P2
2021/01/31 00:02:13;;;;;;;5.70;4.55;;;3.20;81.90;;;1.29;81.14;94186.75;5046561;28;20037;-73
2021/01/31 00:04:44;;;;;;;6.38;4.63;;;3.20;82.00;;;1.26;82.91;94193.09;5045478;28;20029;-73
2021/01/31 00:07:10;;;;;;;;;;;3.10;82.20;;;1.27;83.77;94191.28;5045872;28;20400;-73
2021/01/31 00:09:36;;;;;;;5.45;4.30;;;3.10;82.20;;;1.24;81.91;94200.22;5046178;28;19923;-71
2021/01/31 00:12:01;;;;;;;6.78;5.35;;;3.10;82.40;;;1.21;81.04;94201.38;5040918;28;20331;-71
2021/01/31 00:14:27;;;;;;;5.90;4.78;;;3.10;82.60;;;1.23;81.33;94206.38;5076903;28;20116;-71
2021/01/31 00:16:53;;;;;;;6.47;4.88;;;3.10;82.60;;;1.21;81.17;94201.38;5045250;28;20544;-71
2021/01/31 00:19:19;;;;;;;6.70;5.15;;;3.10;82.50;;;1.21;81.67;94201.38;5037863;28;20489;-71
2021/01/31 00:21:44;;;;;;;6.68;5.13;;;3.10;82.50;;;1.22;81.77;94197.81;5027472;28;20456;-71
2021/01/31 00:24:10;;;;;;;6.28;4.97;;;3.10;82.30;;;1.23;81.31;94202.00;5065924;28;20500;-70
2021/01/31 00:26:36;;;;;;;5.95;4.65;;;3.10;82.10;;;1.22;81.30;94197.81;5079317;28;20025;-70
2021/01/31 00:29:03;;;;;;;5.80;5.05;;;3.10;82.20;;;1.23;81.23;94203.81;5044306;28;20045;-71
2021/01/31 00:31:29;;;;;;;6.50;4.80;;;3.10;82.10;;;1.21;82.09;94200.59;5023512;28;20091;-71
2021/01/31 00:33:55;;;;;;;5.95;4.80;;;3.10;82.00;;;1.17;81.40;94199.34;5033653;28;20524;-70
2021/01/31 00:36:20;;;;;;;6.60;5.25;;;3.00;82.10;;;1.17;81.40;94209.69;5063744;28;20038;-70
2021/01/31 00:38:46;;;;;;;5.97;5.00;;;3.10;82.30;;;1.13;81.36;94200.66;5045419;28;20103;-70
2021/01/31 00:41:12;;;;;;;5.90;5.13;;;3.00;82.10;;;1.12;81.67;94202.44;5065311;28;20044;-71
2021/01/31 00:43:38;;;;;;;5.93;5.10;;;3.00;82.10;;;1.09;81.32;94197.63;5046560;28;20501;-71
2021/01/31 00:46:03;;;;;;;8.18;4.80;;;3.00;82.00;;;1.12;81.84;94207.63;5046079;28;20048;-70
2021/01/31 00:48:29;;;;;;;6.63;5.30;;;3.10;81.90;;;1.11;81.88;94206.00;5028526;28;20065;-70
2021/01/31 00:50:55;;;;;;;6.25;5.10;;;3.00;81.90;;;1.10;81.57;94207.00;5010825;28;20045;-70
2021/01/31 00:53:21;;;;;;;6.32;4.88;;;3.00;82.00;;;1.08;81.29;94214.13;5025158;28;20030;-70
2021/01/31 00:55:46;;;;;;;6.30;4.90;;;3.00;81.90;;;1.05;81.53;94211.91;5029132;28;20030;-71
2021/01/31 00:58:12;;;;;;;6.20;5.28;;;2.90;82.00;;;1.04;81.39;94209.50;5036936;28;20095;-70
2021/01/31 01:00:39;;;;;;;5.95;4.95;;;2.90;82.10;;;1.03;81.69;94213.88;5017714;28;20042;-71
2021/01/31 01:03:06;;;;;;;6.05;5.07;;;3.00;82.00;;;1.03;82.29;94216.47;5043553;28;20034;-71
2021/01/31 01:05:32;;;;;;;5.80;4.75;;;2.90;81.90;;;1.03;81.76;94224.22;5037034;28;20045;-71
2021/01/31 01:07:58;;;;;;;5.80;5.20;;;2.90;81.70;;;1.01;81.78;94215.84;5029747;28;20468;-70
2021/01/31 01:10:29;;;;;;;6.20;5.20;;;2.90;81.80;;;1.00;81.40;94224.56;5028178;28;20500;-70
2021/01/31 01:12:55;;;;;;;6.15;5.20;;;2.90;81.70;;;1.00;81.79;94229.75;5053145;28;20061;-70
2021/01/31 01:15:24;;;;;;;6.82;5.32;;;2.90;81.80;;;0.98;81.81;94231.72;5045567;28;20034;-70
2021/01/31 01:17:50;;;;;;;6.63;5.18;;;2.90;81.70;;;0.97;81.31;94235.28;5015359;28;20042;-71
2021/01/31 01:20:16;;;;;;;5.95;5.05;;;2.90;81.70;;;0.98;81.60;94239.47;5006897;28;20434;-70
2021/01/31 01:22:42;;;;;;;6.82;5.43;;;2.90;82.00;;;0.96;81.94;94228.50;5038125;28;20026;-71
2021/01/31 01:25:08;;;;;;;6.20;5.22;;;2.90;81.90;;;0.97;82.05;94229.31;5011575;28;20038;-71
2021/01/31 01:27:34;;;;;;;6.68;5.68;;;2.90;82.00;;;0.93;82.09;94226.28;5061134;28;20533;-70
2021/01/31 01:30:00;;;;;;;6.88;5.57;;;2.80;82.00;;;0.94;81.44;94222.69;5059289;28;20035;-70
2021/01/31 01:32:26;;;;;;;7.43;5.88;;;2.80;82.20;;;0.93;81.53;94223.69;5026703;28;20474;-70
2021/01/31 01:34:52;;;;;;;6.68;5.40;;;2.90;82.30;;;0.90;82.28;94230.00;5028629;28;20547;-70
2021/01/31 01:37:19;;;;;;;6.18;4.80;;;2.80;82.40;;;0.88;82.49;94220.78;5054276;28;20052;-70
2021/01/31 01:39:44;;;;;;;7.25;5.70;;;2.80;82.20;;;0.78;82.08;94217.66;5054005;28;20052;-70
2021/01/31 01:42:10;;;;;;;5.95;5.25;;;2.70;82.20;;;0.83;81.87;94243.81;5020830;28;20477;-70
2021/01/31 01:44:36;;;;;;;8.05;5.78;;;2.70;82.10;;;0.76;81.90;94237.75;5055773;28;20124;-70
2021/01/31 01:47:03;;;;;;;7.72;6.15;;;2.60;82.10;;;0.75;81.82;94243.91;4992811;28;20124;-71
2021/01/31 01:49:32;;;;;;;8.05;6.30;;;2.60;82.20;;;0.71;82.26;94235.69;4990707;28;20026;-69
2021/01/31 01:52:34;;;;;;;7.18;5.63;;;2.60;82.20;;;0.72;83.30;94247.63;4992180;28;20438;-71
2021/01/31 01:55:11;;;;;;;7.82;5.88;;;2.60;82.00;;;0.73;82.80;94248.44;5061041;28;20057;-71
2021/01/31 01:57:46;;;;;;;7.55;5.75;;;2.60;81.60;;;0.73;82.35;94248.44;5031458;28;20044;-71
2021/01/31 02:00:12;;;;;;;7.50;6.00;;;2.60;81.60;;;0.71;81.48;94252.97;5062162;28;20025;-70
2021/01/31 02:02:40;;;;;;;9.15;6.03;;;2.60;81.50;;;0.61;81.62;94242.84;5011683;28;20041;-71
2021/01/31 02:05:11;;;;;;;7.20;5.85;;;2.60;81.80;;;0.66;82.00;94252.69;5023527;28;20112;-71
2021/01/31 02:07:37;;;;;;;8.15;6.45;;;2.60;81.90;;;0.61;82.21;94240.28;5031196;28;20169;-71
2021/01/31 02:10:04;;;;;;;7.60;6.70;;;2.50;82.30;;;0.59;81.74;94245.63;5009801;28;20034;-71
2021/01/31 02:12:29;;;;;;;8.95;6.65;;;2.50;82.00;;;0.59;81.64;94248.22;5060692;28;20033;-71
2021/01/31 02:14:57;;;;;;;9.70;6.85;;;2.50;82.10;;;0.57;82.24;94257.94;5024175;28;20046;-70
2021/01/31 02:17:41;;;;;;;8.25;6.45;;;2.40;81.70;;;0.54;82.66;94254.88;5025280;28;20497;-71
2021/01/31 02:20:34;;;;;;;9.07;7.03;;;2.40;81.60;;;0.50;83.31;94254.44;5013730;28;20056;-70
2021/01/31 02:23:37;;;;;;;9.45;6.95;;;2.40;81.90;;;0.48;82.53;94261.56;5020312;28;20385;-71
2021/01/31 02:26:14;;;;;;;9.32;7.07;;;2.40;81.60;;;0.44;82.23;94249.13;5024764;28;20044;-70
2021/01/31 02:29:19;;;;;;;8.98;7.15;;;2.30;81.60;;;0.42;82.42;94258.84;5038865;28;20048;-70
2021/01/31 02:32:08;;;;;;;8.70;6.82;;;2.20;81.70;;;0.38;82.64;94260.97;5052207;28;20037;-71
2021/01/31 02:34:55;;;;;;;9.07;7.00;;;2.20;81.40;;;0.37;82.64;94261.94;5042115;28;20068;-71
2021/01/31 02:37:51;;;;;;;9.88;7.13;;;2.20;81.80;;;0.37;82.53;94266.31;5030553;28;20045;-70
2021/01/31 02:40:31;;;;;;;9.95;7.60;;;2.20;81.70;;;0.35;82.91;94257.91;5038842;28;20053;-70
2021/01/31 02:43:16;;;;;;;10.65;7.68;;;2.20;82.20;;;0.34;82.95;94259.69;5030683;28;20082;-71
2021/01/31 02:46:00;;;;;;;10.90;8.07;;;2.20;81.90;;;0.32;83.27;94258.25;5062148;28;20040;-71
2021/01/31 02:48:34;;;;;;;11.38;7.50;;;2.20;82.10;;;0.31;82.74;94257.47;5026216;28;20079;-70
2021/01/31 02:51:07;;;;;;;9.57;7.25;;;2.20;82.10;;;0.30;82.63;94263.59;5043874;28;20716;-70
2021/01/31 02:53:41;;;;;;;11.25;8.25;;;2.20;82.00;;;0.31;83.01;94267.81;5012922;28;20145;-71
2021/01/31 02:56:16;;;;;;;10.02;7.60;;;2.20;82.00;;;0.31;81.75;94272.97;5011669;28;20034;-70
2021/01/31 02:58:53;;;;;;;10.10;7.60;;;2.20;81.90;;;0.28;82.18;94265.56;5018371;28;20045;-71
2021/01/31 03:01:31;;;;;;;11.45;8.15;;;2.20;81.80;;;0.29;82.51;94272.34;5028273;28;20071;-70
2021/01/31 03:04:10;;;;;;;9.55;7.10;;;2.20;82.00;;;0.27;82.95;94267.34;5053264;28;20029;-71
2021/01/31 03:06:50;;;;;;;10.27;7.78;;;2.10;81.90;;;0.26;82.93;94267.53;5003626;28;20135;-71
2021/01/31 03:09:45;;;;;;;11.25;7.72;;;2.20;81.70;;;0.22;82.68;94271.41;5035946;28;20029;-73
2021/01/31 03:12:18;;;;;;;11.07;7.95;;;2.10;81.80;;;0.18;82.57;94275.31;5038102;28;20045;-70
2021/01/31 03:14:49;;;;;;;10.57;7.95;;;2.10;81.80;;;0.16;82.35;94283.22;5017589;28;20037;-71
2021/01/31 03:18:07;;;;;;;11.32;8.25;;;2.00;81.70;;;0.15;83.19;94281.63;5007384;28;20034;-71
2021/01/31 03:20:37;;;;;;;11.27;8.20;;;2.10;81.60;;;0.12;82.14;94281.97;4996300;28;20496;-71
2021/01/31 03:23:28;;;;;;;10.02;7.60;;;2.10;81.70;;;0.12;83.00;94281.16;5017412;28;20036;-73
2021/01/31 03:26:05;;;;;;;11.40;8.50;;;2.10;81.80;;;0.15;82.91;94283.41;5019638;28;20458;-71
2021/01/31 03:28:31;;;;;;;10.98;7.57;;;2.10;81.80;;;0.14;81.44;94285.19;5011651;28;20557;-71
2021/01/31 03:30:57;;;;;;;11.00;7.30;;;2.10;81.50;;;0.13;81.49;94296.50;5030059;28;20036;-71
2021/01/31 03:33:26;;;;;;;11.65;8.40;;;2.00;81.40;;;0.12;81.84;94291.50;5042986;28;20548;-71
2021/01/31 03:35:53;;;;;;;10.77;8.30;;;2.10;81.30;;;0.13;81.94;94296.50;5027778;28;20038;-71
2021/01/31 03:38:41;;;;;;;11.95;7.45;;;2.10;81.40;;;0.11;82.57;94302.81;5037176;28;20029;-72
2021/01/31 03:41:10;;;;;;;10.45;7.68;;;2.10;81.40;;;0.10;81.65;94308.97;5022430;28;20038;-71
2021/01/31 03:43:36;;;;;;;10.50;7.63;;;2.00;80.90;;;0.09;81.74;94318.50;5043262;28;20056;-71
2021/01/31 03:46:39;;;;;;;9.82;7.65;;;2.10;80.80;;;0.11;82.24;94316.53;5048990;28;20652;-71
2021/01/31 03:49:24;;;;;;;10.82;7.78;;;2.10;80.80;;;0.11;81.86;94318.31;5021477;28;20547;-71
2021/01/31 03:51:50;;;;;;;11.40;7.95;;;2.10;80.80;;;0.04;81.53;94312.22;5021955;28;20088;-72
2021/01/31 03:54:15;;;;;;;10.23;7.22;;;2.10;81.00;;;0.09;81.72;94322.84;4990666;28;20460;-71
2021/01/31 03:56:52;;;;;;;11.77;7.90;;;2.00;80.80;;;0.09;81.51;94325.44;5015112;28;20026;-71
2021/01/31 03:59:33;;;;;;;11.02;7.32;;;2.10;80.50;;;0.07;82.10;94330.78;5026016;28;20213;-70
2021/01/31 04:01:59;;;;;;;10.00;7.10;;;2.10;80.90;;;0.07;81.58;94325.63;5017503;28;20534;-71
2021/01/31 04:04:37;;;;;;;11.48;7.60;;;2.00;80.60;;;0.07;82.49;94329.97;5010828;28;20045;-70
2021/01/31 04:07:05;;;;;;;11.50;7.78;;;2.10;80.80;;;0.06;81.48;94338.72;5014756;28;20501;-71
2021/01/31 04:09:33;;;;;;;11.93;8.07;;;2.10;80.70;;;0.05;81.55;94335.31;5047115;28;20413;-71
2021/01/31 04:12:11;;;;;;;10.88;8.05;;;2.10;80.80;;;0.05;82.01;94332.72;5015357;28;20033;-71
2021/01/31 04:15:00;;;;;;;12.70;8.68;;;2.10;80.90;;;0.07;82.74;94335.16;5035117;28;20041;-71
2021/01/31 04:17:26;;;;;;;11.95;8.75;;;2.10;81.00;;;0.05;81.71;94334.50;5065320;28;20044;-71
2021/01/31 04:19:51;;;;;;;11.95;8.88;;;2.00;81.10;;;0.05;81.46;94337.09;5031522;28;20030;-71
2021/01/31 04:22:17;;;;;;;12.73;8.85;;;2.00;81.00;;;0.03;81.49;94341.63;5049514;28;20033;-70
2021/01/31 04:24:43;;;;;;;12.65;9.00;;;2.00;81.00;;;0.01;81.70;94341.81;5044046;28;20056;-71
2021/01/31 04:27:09;;;;;;;14.10;9.15;;;1.90;81.00;;;-0.01;81.75;94347.09;5084303;28;20029;-72
2021/01/31 04:29:35;;;;;;;15.30;9.70;;;2.00;80.80;;;-0.04;81.27;94350.03;5034931;28;20525;-70
2021/01/31 04:32:02;;;;;;;14.05;9.70;;;1.90;80.80;;;-0.06;81.67;94343.41;5039031;28;20021;-71
2021/01/31 04:34:27;;;;;;;15.70;9.73;;;1.90;81.00;;;-0.11;81.23;94346.50;5034598;28;20487;-70
2021/01/31 04:36:53;;;;;;;16.33;9.63;;;1.80;80.80;;;-0.14;81.38;94359.75;5028207;28;20104;-71
2021/01/31 04:39:19;;;;;;;14.23;9.63;;;1.80;80.80;;;-0.16;81.47;94358.31;5044712;28;20029;-68
2021/01/31 04:41:44;;;;;;;14.73;9.95;;;1.80;81.20;;;-0.13;81.88;94360.56;5014664;28;20037;-69
2021/01/31 04:44:12;;;;;;;15.10;9.98;;;1.80;81.00;;;-0.15;81.59;94367.69;5020568;28;20029;-69
2021/01/31 04:47:04;;;;;;;16.65;10.32;;;1.80;81.00;;;-0.19;82.43;94356.06;5030824;28;20033;-68
2021/01/31 04:49:56;;;;;;;15.93;9.68;;;1.70;80.90;;;-0.21;82.65;94368.34;5022798;28;20036;-67
2021/01/31 04:52:52;;;;;;;15.15;10.00;;;1.70;81.00;;;-0.23;82.36;94368.50;5058371;28;20037;-68
2021/01/31 04:55:56;;;;;;;15.70;9.73;;;1.70;80.80;;;-0.25;81.94;94375.59;5030832;28;20041;-68
2021/01/31 04:58:34;;;;;;;17.35;10.32;;;1.60;80.50;;;-0.26;81.90;94370.59;5041315;28;20052;-69
2021/01/31 05:01:08;;;;;;;16.52;10.57;;;1.70;80.80;;;-0.27;81.45;94369.81;5025304;28;20058;-68
2021/01/31 05:04:00;;;;;;;15.50;10.13;;;1.70;80.60;;;-0.29;81.16;94370.94;5014244;28;20095;-68
2021/01/31 05:06:33;;;;;;;16.17;9.55;;;1.70;80.40;;;-0.31;81.68;94364.16;5037625;28;20091;-68
2021/01/31 05:08:58;;;;;;;14.07;9.93;;;1.70;80.40;;;-0.33;81.26;94371.28;5045614;28;20052;-68
2021/01/31 05:11:28;;;;;;;18.38;10.35;;;1.70;80.30;;;-0.36;81.34;94381.94;5015740;28;20067;-68
2021/01/31 05:14:15;;;;;;;15.27;10.00;;;1.60;80.30;;;-0.33;81.51;94396.28;5016012;28;20038;-69
2021/01/31 05:16:41;;;;;;;14.90;9.77;;;1.70;80.40;;;-0.35;81.30;94387.91;5031246;28;20048;-69
2021/01/31 05:19:12;;;;;;;16.30;9.90;;;1.60;80.20;;;-0.35;81.48;94393.06;5050830;28;20037;-69
2021/01/31 05:21:38;;;;;;;20.88;10.32;;;1.60;80.10;;;-0.35;81.21;94403.41;5043866;28;20079;-69
2021/01/31 05:24:11;;;;;;;14.65;9.25;;;1.60;80.00;;;-0.35;81.16;94403.41;5034266;28;20102;-69
2021/01/31 05:26:42;;;;;;;17.20;10.18;;;1.60;79.90;;;-0.35;81.47;94408.56;5032495;28;20409;-68
2021/01/31 05:29:14;;;;;;;17.90;10.77;;;1.60;80.00;;;-0.35;81.78;94413.75;5010372;28;20129;-68
2021/01/31 05:31:40;;;;;;;15.38;9.75;;;1.70;80.10;;;-0.38;81.26;94414.06;5029084;28;20045;-71
2021/01/31 05:34:06;;;;;;;17.15;10.35;;;1.60;79.90;;;-0.36;81.09;94417.28;5029766;28;20120;-71
2021/01/31 05:36:32;;;;;;;18.63;10.27;;;1.70;80.10;;;-0.38;81.38;94424.41;5032872;28;20134;-70
2021/01/31 05:38:58;;;;;;;18.40;10.30;;;1.70;80.20;;;-0.40;81.57;94421.19;5050806;28;20045;-71
2021/01/31 05:41:46;;;;;;;18.42;10.60;;;1.60;80.30;;;-0.38;82.40;94416.66;5032092;28;20045;-70
2021/01/31 05:44:15;;;;;;;19.58;10.32;;;1.70;80.40;;;-0.40;81.17;94408.25;5034476;28;20725;-70
2021/01/31 05:46:56;;;;;;;15.75;10.07;;;1.60;80.30;;;-0.39;81.49;94423.59;5030519;28;20417;-71
2021/01/31 05:49:42;;;;;;;17.73;10.38;;;1.60;80.30;;;-0.38;82.03;94419.22;5026478;28;20505;-70
2021/01/31 05:52:20;;;;;;;19.67;10.52;;;1.60;80.20;;;-0.40;81.93;94421.19;5043252;28;20057;-69
2021/01/31 05:54:47;;;;;;;16.92;10.20;;;1.60;80.20;;;-0.42;81.11;94433.44;5031059;28;20124;-71
2021/01/31 05:57:33;;;;;;;17.60;9.88;;;1.60;80.00;;;-0.46;81.81;94438.09;5037672;28;20040;-70
2021/01/31 06:00:04;;;;;;;17.40;10.70;;;1.60;80.40;;;-0.49;81.58;94435.03;5032119;28;20036;-71
2021/01/31 06:02:31;;;;;;;;;;;1.50;80.30;;;-0.50;82.27;94436.00;5026145;28;20036;-70
2021/01/31 06:05:20;;;;;;;16.15;9.57;;;1.50;80.50;;;-0.48;82.11;94439.25;5029094;28;19919;-70
2021/01/31 06:07:47;;;;;;;17.65;10.18;;;1.50;80.70;;;-0.49;80.99;94437.63;5029088;28;20029;-70
2021/01/31 06:10:18;;;;;;;19.55;9.88;;;1.50;80.40;;;-0.49;81.62;94433.28;5030286;28;20034;-72
2021/01/31 06:12:46;;;;;;;17.73;10.35;;;1.60;80.30;;;-0.45;81.12;94433.78;5077585;28;20144;-69
2021/01/31 06:15:21;;;;;;;16.20;10.15;;;1.60;80.50;;;-0.46;82.09;94437.31;5046975;28;20037;-68
2021/01/31 06:18:02;;;;;;;16.35;9.77;;;1.60;80.30;;;-0.52;81.90;94433.59;5047947;28;20194;-68
2021/01/31 06:20:36;;;;;;;14.48;8.82;;;1.50;79.90;;;-0.54;81.61;94438.13;5060622;28;20043;-70
2021/01/31 06:23:03;;;;;;;16.75;9.13;;;1.50;79.80;;;-0.55;80.90;94438.28;5033169;28;20025;-71
2021/01/31 06:25:28;;;;;;;15.00;9.02;;;1.50;79.60;;;-0.51;80.85;94427.47;5051233;28;20480;-71
2021/01/31 06:28:09;;;;;;;13.57;8.95;;;1.50;79.40;;;-0.52;81.42;94425.84;5061800;28;20132;-71
2021/01/31 06:30:56;;;;;;;15.35;8.63;;;1.50;79.40;;;-0.51;81.24;94429.25;5049752;28;22351;-68
2021/01/31 06:33:22;;;;;;;15.05;9.05;;;1.60;79.10;;;-0.51;80.43;94426.66;5060190;28;20415;-68
2021/01/31 06:36:14;;;;;;;14.95;9.48;;;1.60;79.40;;;-0.49;81.65;94427.28;5053621;28;20130;-68
2021/01/31 06:39:13;;;;;;;17.88;9.43;;;1.60;79.20;;;-0.50;81.40;94431.66;5033846;28;20033;-68
2021/01/31 06:41:51;;;;;;;17.88;9.75;;;1.60;79.30;;;-0.50;81.21;94430.84;5047962;28;20103;-69
2021/01/31 06:44:55;;;;;;;16.20;9.77;;;1.60;78.90;;;-0.51;81.30;94435.22;5046598;28;20110;-69
2021/01/31 06:47:51;;;;;;;17.63;9.77;;;1.60;79.40;;;-0.51;80.99;94439.56;5040717;28;20037;-69
2021/01/31 06:50:44;;;;;;;16.05;9.68;;;1.50;79.00;;;-0.52;81.17;94443.94;5073910;28;20030;-70
2021/01/31 06:53:24;;;;;;;16.42;8.95;;;1.60;78.90;;;-0.55;80.64;94449.41;5020614;28;20033;-70
2021/01/31 06:56:11;;;;;;;16.98;9.60;;;1.50;78.70;;;-0.63;80.82;94445.06;5056380;28;20136;-70
2021/01/31 06:59:17;;;;;;;18.95;9.63;;;1.50;78.70;;;-0.57;80.60;94466.84;5080327;28;20071;-70
2021/01/31 07:02:14;;;;;;;17.77;8.93;;;1.50;78.60;;;-0.61;80.73;94465.56;5056403;28;20041;-71
2021/01/31 07:05:16;;;;;;;15.98;9.93;;;1.40;78.90;;;-0.57;81.51;94481.53;5028251;28;20123;-71
2021/01/31 07:08:03;;;;;;;19.02;11.20;;;1.50;79.30;;;-0.56;81.10;94488.31;5032577;28;20033;-69
2021/01/31 07:11:09;;;;;;;29.65;16.90;;;1.50;79.00;;;-0.55;81.35;94479.59;5047640;28;20029;-70
2021/01/31 07:14:18;;;;;;;35.88;19.33;;;1.60;79.10;;;-0.51;81.25;94480.88;5047839;28;20118;-70
2021/01/31 07:17:22;;;;;;;26.85;15.18;;;1.60;79.00;;;-0.52;81.46;94479.28;5065042;28;20046;-71
2021/01/31 07:19:59;;;;;;;24.83;14.25;;;1.60;78.90;;;-0.50;81.24;94482.50;5032953;28;20076;-71
2021/01/31 07:22:41;;;;;;;20.77;11.75;;;1.60;78.90;;;-0.48;81.19;94483.13;5026631;28;20021;-70
2021/01/31 07:25:31;;;;;;;18.20;10.93;;;1.70;78.70;;;-0.48;80.88;94498.63;5019625;28;20041;-70
2021/01/31 07:28:08;;;;;;;27.55;15.40;;;1.60;78.60;;;-0.49;80.52;94494.44;5065620;28;20060;-70
2021/01/31 07:30:41;;;;;;;24.48;15.05;;;1.60;78.80;;;-0.54;81.00;94492.34;5003134;28;20041;-70
2021/01/31 07:33:28;;;;;;;21.10;12.50;;;1.60;78.50;;;-0.49;81.03;94505.56;5011252;28;20037;-70
2021/01/31 07:35:58;;;;;;;17.35;10.75;;;1.60;78.50;;;-0.48;80.40;94514.13;5021368;28;20068;-69
2021/01/31 07:38:31;;;;;;;17.80;10.63;;;1.60;78.60;;;-0.49;80.58;94510.75;5030119;28;20038;-69
2021/01/31 07:40:57;;;;;;;19.10;10.57;;;1.60;78.50;;;-0.50;80.51;94509.13;5011897;28;20044;-69
2021/01/31 07:43:26;;;;;;;19.60;10.90;;;1.60;78.50;;;-0.49;80.68;94517.69;5018915;28;20070;-68
2021/01/31 07:46:01;;;;;;;17.95;10.55;;;1.60;78.70;;;-0.50;80.82;94518.66;5028780;28;20033;-69
2021/01/31 07:48:39;;;;;;;19.77;12.48;;;1.60;78.60;;;-0.51;80.70;94524.78;5028803;28;20517;-67
2021/01/31 07:51:05;;;;;;;21.80;12.60;;;1.60;78.50;;;-0.50;80.48;94519.47;5046202;28;20086;-69
2021/01/31 07:53:31;;;;;;;24.17;14.65;;;1.60;78.30;;;-0.46;80.45;94514.78;5030207;28;20036;-66
2021/01/31 07:55:56;;;;;;;23.10;12.88;;;1.70;78.40;;;-0.44;80.55;94513.69;5042887;28;20570;-69
2021/01/31 07:58:25;;;;;;;20.70;12.82;;;1.70;78.40;;;-0.41;80.61;94526.25;5038968;28;20045;-66
2021/01/31 08:00:53;;;;;;;22.48;13.52;;;1.80;78.20;;;-0.36;80.29;94530.94;5048405;28;20035;-67
2021/01/31 08:03:35;;;;;;;30.85;16.80;;;1.80;77.80;;;-0.37;80.11;94526.75;5034113;28;20060;-67
2021/01/31 08:06:00;;;;;;;;;;;1.80;77.80;;;-0.34;80.15;94534.97;5063726;28;20033;-67
2021/01/31 08:08:56;;;;;;;20.20;11.90;;;1.80;77.40;;;-0.32;80.22;94535.63;5062767;28;19917;-66
2021/01/31 08:11:27;;;;;;;21.10;12.50;;;1.90;77.30;;;-0.28;80.15;94530.94;5049650;28;20082;-68
2021/01/31 08:13:53;;;;;;;20.33;12.18;;;2.00;77.10;;;-0.25;79.63;94530.59;5061346;28;20509;-67
2021/01/31 08:16:54;;;;;;;18.23;10.88;;;2.00;76.80;;;-0.23;79.80;94526.09;5053782;28;20035;-67
2021/01/31 08:19:20;;;;;;;19.92;11.93;;;2.00;76.50;;;-0.21;79.84;94529.34;5073327;28;20041;-67
2021/01/31 08:22:08;;;;;;;20.83;11.02;;;2.00;76.20;;;-0.18;80.15;94535.97;5056259;28;20503;-69
2021/01/31 08:25:07;;;;;;;21.10;11.93;;;2.10;76.50;;;-0.15;80.20;94548.56;5045385;28;20366;-66
2021/01/31 08:27:42;;;;;;;21.42;11.77;;;2.10;76.80;;;-0.13;79.98;94551.78;5047268;28;20415;-68
2021/01/31 08:30:32;;;;;;;19.17;11.25;;;2.10;76.70;;;-0.10;80.21;94549.69;5039121;28;20037;-70
2021/01/31 08:32:58;;;;;;;22.00;13.25;;;2.20;76.90;;;-0.06;79.45;94553.53;5015038;28;20036;-69
2021/01/31 08:35:42;;;;;;;21.13;13.10;;;2.20;77.00;;;-0.05;79.62;94550.00;5042807;28;20458;-70
2021/01/31 08:38:33;;;;;;;18.98;12.05;;;2.20;76.80;;;-0.02;79.47;94554.03;5045116;28;20029;-68
2021/01/31 08:41:01;;;;;;;21.08;11.82;;;2.20;76.40;;;-0.02;79.58;94565.16;5039864;28;20037;-71
2021/01/31 08:43:30;;;;;;;19.90;11.50;;;2.20;76.30;;;0.02;79.85;94564.88;5045033;28;20500;-70
2021/01/31 08:46:24;;;;;;;19.45;11.00;;;2.20;75.70;;;0.03;80.08;94553.56;5047928;28;20033;-70
2021/01/31 08:48:53;;;;;;;19.30;11.63;;;2.20;76.30;;;0.05;79.00;94544.69;5038939;28;20029;-69
2021/01/31 08:51:43;;;;;;;18.90;11.35;;;2.30;75.50;;;0.08;79.07;94548.72;5049646;28;20025;-70
2021/01/31 08:54:13;;;;;;;19.83;11.50;;;2.30;75.00;;;0.10;79.25;94557.09;5043737;28;20029;-71
2021/01/31 08:56:43;;;;;;;19.52;11.18;;;2.40;74.60;;;0.14;79.26;94563.56;5049541;28;20578;-70
2021/01/31 08:59:24;;;;;;;19.90;11.25;;;2.40;74.50;;;0.16;78.05;94569.38;5046473;28;20068;-70
2021/01/31 09:02:06;;;;;;;21.60;11.50;;;2.40;73.80;;;0.16;78.91;94569.38;5050026;28;20361;-70
2021/01/31 09:04:32;;;;;;;21.55;13.10;;;2.40;74.60;;;0.19;79.11;94562.09;5048283;28;20047;-70
2021/01/31 09:07:02;;;;;;;22.48;12.82;;;2.40;74.60;;;0.27;79.17;94569.06;5013511;28;20608;-69
2021/01/31 09:09:45;;;;;;;23.67;11.93;;;2.60;74.90;;;0.35;78.55;94576.78;5028766;28;20033;-69
2021/01/31 09:12:11;;;;;;;18.33;11.55;;;2.70;75.00;;;0.40;78.59;94571.94;5033310;28;20033;-69
2021/01/31 09:14:42;;;;;;;17.67;11.45;;;2.70;74.30;;;0.40;78.07;94579.69;5049636;28;20032;-71
2021/01/31 09:17:22;;;;;;;21.40;12.00;;;2.60;74.10;;;0.36;78.64;94570.66;5044449;28;20658;-71
2021/01/31 09:19:48;;;;;;;20.23;12.50;;;2.70;74.10;;;0.41;79.09;94591.66;5029863;28;20049;-72
2021/01/31 09:22:21;;;;;;;19.30;11.35;;;2.70;74.90;;;0.44;78.40;94586.13;5037721;28;20038;-66
2021/01/31 09:24:52;;;;;;;19.58;12.10;;;2.70;74.20;;;0.45;78.92;94582.59;5032585;28;20043;-71
2021/01/31 09:27:20;;;;;;;19.63;12.05;;;2.70;74.30;;;0.43;78.56;94576.78;5033415;28;20123;-70
2021/01/31 09:29:47;;;;;;;19.40;11.98;;;2.70;74.10;;;0.44;78.83;94580.97;5029158;28;20413;-71
2021/01/31 09:32:27;;;;;;;19.90;11.77;;;2.70;74.00;;;0.48;78.16;94582.28;5012989;28;20037;-65
2021/01/31 09:34:54;;;;;;;19.77;11.43;;;2.70;74.00;;;0.46;78.30;94579.06;5019307;28;20047;-71
2021/01/31 09:37:28;;;;;;;23.45;13.50;;;2.70;73.10;;;0.48;78.37;94574.53;5028254;28;20091;-72
2021/01/31 09:39:57;;;;;;;24.88;15.40;;;2.70;73.40;;;0.51;77.88;94574.19;5036884;28;20083;-71
2021/01/31 09:42:23;;;;;;;35.08;20.45;;;2.80;73.60;;;0.54;78.13;94576.44;5021969;28;20039;-67
2021/01/31 09:44:55;;;;;;;35.85;20.33;;;2.90;72.80;;;0.59;77.81;94589.69;4996616;28;20021;-72
2021/01/31 09:47:21;;;;;;;20.90;13.43;;;3.00;73.40;;;0.63;78.34;94590.16;5019558;28;20033;-71
2021/01/31 09:49:59;;;;;;;22.00;12.70;;;2.90;73.20;;;0.65;77.33;94593.38;5028331;28;20112;-69
2021/01/31 09:52:25;;;;;;;18.13;11.80;;;2.90;72.70;;;0.65;78.37;94590.78;5020550;28;20029;-74
2021/01/31 09:54:51;;;;;;;22.30;12.13;;;2.90;72.50;;;0.63;77.59;94579.00;5029216;28;20445;-72
2021/01/31 09:57:25;;;;;;;19.23;11.85;;;2.80;72.40;;;0.61;77.51;94579.97;5030243;28;20401;-70
2021/01/31 10:00:10;;;;;;;20.25;11.43;;;2.90;72.80;;;0.64;77.11;94593.53;5013298;28;20102;-70
2021/01/31 10:02:36;;;;;;;19.70;12.05;;;3.00;72.70;;;0.70;77.63;94582.56;5044759;28;20056;-69
2021/01/31 10:05:06;;;;;;;20.38;12.70;;;3.10;72.70;;;0.74;77.65;94581.25;5042251;28;20037;-71
2021/01/31 10:07:40;;;;;;;19.90;12.15;;;3.20;72.30;;;0.87;77.56;94581.53;5024948;28;20064;-67
2021/01/31 10:10:39;;;;;;;25.65;15.05;;;3.40;71.90;;;0.92;75.72;94579.25;5047122;28;20041;-74
2021/01/31 10:13:37;;;;;;;20.92;11.52;;;3.40;71.10;;;0.91;76.20;94585.41;5030329;28;20048;-74
2021/01/31 10:16:18;;;;;;;19.98;11.68;;;3.40;70.80;;;0.98;76.91;94578.59;5025303;28;20148;-70
2021/01/31 10:18:44;;;;;;;23.98;13.98;;;3.40;70.80;;;1.01;77.46;94588.59;5039276;28;20045;-70
2021/01/31 10:21:33;;;;;;;22.17;12.48;;;3.40;71.00;;;1.02;75.38;94590.22;5012287;28;20037;-71
2021/01/31 10:24:24;;;;;;;21.05;12.77;;;3.40;70.80;;;1.08;76.29;94596.50;5033958;28;20095;-70
2021/01/31 10:26:50;;;;;;;20.70;12.07;;;3.50;71.10;;;1.10;77.43;94603.13;5028035;28;20401;-71
2021/01/31 10:29:28;;;;;;;20.52;11.68;;;3.50;71.40;;;1.09;77.16;94605.88;5037025;28;20158;-70
2021/01/31 10:31:54;;;;;;;19.85;12.23;;;3.40;71.10;;;1.10;77.46;94604.91;5027987;28;20092;-70
2021/01/31 10:34:38;;;;;;;21.20;11.95;;;3.50;71.40;;;1.07;76.07;94603.47;5040348;28;20417;-71
2021/01/31 10:37:29;;;;;;;20.17;11.85;;;3.40;71.00;;;1.05;75.81;94594.25;5047409;28;20041;-69
2021/01/31 10:39:55;;;;;;;22.52;12.95;;;3.40;70.30;;;1.03;77.51;94597.00;5045113;28;21521;-69
2021/01/31 10:42:20;;;;;;;21.05;12.43;;;3.30;70.50;;;1.06;77.56;94591.50;5039281;28;20037;-69
2021/01/31 10:44:46;;;;;;;21.83;12.65;;;3.40;70.70;;;1.06;77.10;94594.06;5032565;28;20045;-70
2021/01/31 10:47:12;;;;;;;21.13;12.48;;;3.40;70.40;;;1.05;76.62;94587.28;5046028;28;20060;-69
2021/01/31 10:49:37;;;;;;;21.20;11.75;;;3.40;70.50;;;1.09;76.37;94596.31;5027794;28;20057;-70
2021/01/31 10:52:03;;;;;;;22.13;13.00;;;3.50;70.40;;;1.11;76.88;94589.19;5046037;28;20233;-66
2021/01/31 10:54:29;;;;;;;21.55;12.43;;;3.50;70.70;;;1.15;77.33;94589.69;5044365;28;20061;-69
2021/01/31 10:56:55;;;;;;;23.92;14.88;;;3.50;70.80;;;1.20;76.59;94587.41;5029137;28;20029;-73